createdAt,value
2018-02-02T00:01:10.636Z,67.50
2018-02-02T00:03:44.242Z,67.50
2018-02-02T00:06:11.922Z,67.50
2018-02-02T00:08:39.572Z,67.50
2018-02-02T00:11:07.408Z,67.50
2018-02-02T00:13:35.080Z,67.50
2018-02-02T00:16:02.728Z,67.50
2018-02-02T00:18:30.413Z,67.40
2018-02-02T00:20:58.038Z,67.40
2018-02-02T00:23:25.635Z,67.50
2018-02-02T00:25:53.589Z,67.40
2018-02-02T00:28:21.281Z,67.40
2018-02-02T00:30:48.912Z,67.40
2018-02-02T00:33:16.588Z,67.40
2018-02-02T00:35:44.295Z,67.40
2018-02-02T00:38:12.315Z,67.40
2018-02-02T00:40:39.967Z,67.40
2018-02-02T00:43:07.624Z,67.40
2018-02-02T00:45:35.346Z,67.40
2018-02-02T00:48:03.338Z,67.40
2018-02-02T00:50:37.969Z,67.40
2018-02-02T00:53:06.031Z,67.30
2018-02-02T00:55:34.026Z,67.30
2018-02-02T00:58:02.240Z,67.30
2018-02-02T01:00:32.747Z,67.40
2018-02-02T01:03:11.556Z,67.30
2018-02-02T01:05:39.552Z,67.30
2018-02-02T01:08:07.569Z,67.30
2018-02-02T01:10:35.670Z,67.30
2018-02-02T01:13:03.356Z,67.30
2018-02-02T01:15:31.399Z,67.30
2018-02-02T01:17:59.052Z,67.30
2018-02-02T01:20:26.681Z,67.30
2018-02-02T01:22:54.421Z,67.30
2018-02-02T01:25:22.045Z,67.30
2018-02-02T01:27:49.718Z,67.30
2018-02-02T01:30:17.770Z,67.30
2018-02-02T01:32:45.436Z,67.30
2018-02-02T01:35:13.084Z,67.30
2018-02-02T01:37:40.759Z,67.30
2018-02-02T01:40:08.402Z,67.30
2018-02-02T01:42:36.085Z,67.30
2018-02-02T01:45:03.695Z,67.30
2018-02-02T01:47:31.433Z,67.30
2018-02-02T01:49:59.020Z,67.20
2018-02-02T01:52:26.714Z,67.30
2018-02-02T01:54:54.338Z,67.20
2018-02-02T01:57:21.989Z,67.20
2018-02-02T01:59:49.537Z,67.30
2018-02-02T02:02:17.594Z,67.30
2018-02-02T02:04:45.209Z,67.30
2018-02-02T02:07:12.852Z,67.30
2018-02-02T02:09:49.997Z,67.20
2018-02-02T02:12:18.006Z,67.20
2018-02-02T02:14:45.704Z,67.20
2018-02-02T02:17:13.312Z,67.30
2018-02-02T02:19:40.868Z,67.30
2018-02-02T02:22:08.939Z,67.30
2018-02-02T02:24:36.941Z,67.20
2018-02-02T02:27:04.588Z,67.20
2018-02-02T02:29:32.244Z,67.20
2018-02-02T02:31:59.778Z,67.20
2018-02-02T02:34:27.773Z,67.30
2018-02-02T02:36:55.745Z,67.20
2018-02-02T02:39:26.379Z,67.30
2018-02-02T02:41:54.046Z,67.20
2018-02-02T02:44:21.714Z,67.30
2018-02-02T02:46:49.373Z,67.30
2018-02-02T02:49:17.036Z,67.30
2018-02-02T02:51:44.671Z,67.30
2018-02-02T02:54:14.385Z,67.20
2018-02-02T02:56:42.026Z,67.20
2018-02-02T02:59:09.557Z,67.30
2018-02-02T03:01:49.932Z,67.30
2018-02-02T03:04:17.562Z,67.30
2018-02-02T03:06:45.186Z,67.30
2018-02-02T03:09:14.298Z,67.30
2018-02-02T03:11:42.397Z,67.30
2018-02-02T03:14:10.042Z,67.30
2018-02-02T03:16:37.661Z,67.30
2018-02-02T03:19:05.393Z,67.30
2018-02-02T03:21:32.994Z,67.30
2018-02-02T03:24:08.164Z,67.30
2018-02-02T03:26:36.106Z,67.30
2018-02-02T03:29:03.801Z,67.30
2018-02-02T03:31:31.435Z,67.30
2018-02-02T03:33:59.114Z,67.50
2018-02-02T03:36:26.753Z,67.50
2018-02-02T03:38:54.814Z,67.50
2018-02-02T03:41:22.456Z,67.50
2018-02-02T03:43:50.354Z,67.50
2018-02-02T03:46:17.988Z,67.50
2018-02-02T03:48:50.382Z,67.50
2018-02-02T03:51:18.038Z,67.50
2018-02-02T03:53:45.706Z,67.50
2018-02-02T03:56:13.355Z,67.60
2018-02-02T03:58:41.047Z,67.60
2018-02-02T04:01:09.106Z,67.60
2018-02-02T04:03:36.744Z,67.60
2018-02-02T04:06:04.425Z,67.60
2018-02-02T04:08:32.080Z,67.60
2018-02-02T04:10:59.791Z,67.70
2018-02-02T04:13:27.440Z,67.60
2018-02-02T04:15:55.067Z,67.60
2018-02-02T04:18:22.712Z,67.60
2018-02-02T04:20:50.795Z,67.60
2018-02-02T04:23:21.562Z,67.60
2018-02-02T04:26:05.983Z,67.60
2018-02-02T04:28:37.046Z,67.60
2018-02-02T04:31:27.595Z,67.60
2018-02-02T04:33:55.562Z,67.60
2018-02-02T04:36:23.559Z,67.70
2018-02-02T04:38:51.906Z,67.70
2018-02-02T04:41:19.666Z,67.70
2018-02-02T04:43:47.673Z,67.70
2018-02-02T04:46:15.288Z,67.70
2018-02-02T04:48:43.219Z,67.70
2018-02-02T04:51:10.864Z,67.70
2018-02-02T04:53:44.661Z,67.80
2018-02-02T04:56:12.354Z,67.80
2018-02-02T04:58:39.981Z,67.70
2018-02-02T05:01:07.653Z,67.80
2018-02-02T05:03:35.315Z,67.80
2018-02-02T05:06:02.984Z,67.80
2018-02-02T05:08:30.619Z,67.80
2018-02-02T05:10:58.262Z,67.80
2018-02-02T05:13:25.911Z,67.90
2018-02-02T05:15:53.853Z,67.90
2018-02-02T05:18:26.353Z,67.90
2018-02-02T05:20:56.543Z,67.90
2018-02-02T05:23:31.995Z,67.90
2018-02-02T05:26:08.126Z,68.00
2018-02-02T05:28:35.664Z,68.00
2018-02-02T05:31:14.047Z,68.00
2018-02-02T05:33:42.039Z,68.00
2018-02-02T05:36:09.679Z,68.00
2018-02-02T05:38:37.378Z,68.10
2018-02-02T05:41:04.982Z,68.10
2018-02-02T05:43:32.947Z,68.10
2018-02-02T05:46:00.569Z,68.10
2018-02-02T05:48:28.218Z,68.20
2018-02-02T05:50:56.253Z,68.20
2018-02-02T05:53:23.794Z,68.20
2018-02-02T05:55:51.852Z,68.30
2018-02-02T05:58:19.901Z,68.30
2018-02-02T06:00:47.527Z,68.30
2018-02-02T06:03:15.147Z,68.40
2018-02-02T06:05:44.475Z,68.40
2018-02-02T06:08:12.118Z,68.50
2018-02-02T06:10:39.690Z,68.50
2018-02-02T06:13:07.236Z,68.50
2018-02-02T06:15:35.279Z,68.50
2018-02-02T06:18:02.883Z,68.50
2018-02-02T06:20:32.545Z,68.60
2018-02-02T06:23:00.144Z,68.60
2018-02-02T06:25:32.544Z,68.60
2018-02-02T06:28:00.188Z,68.70
2018-02-02T06:30:27.945Z,68.70
2018-02-02T06:32:56.020Z,68.70
2018-02-02T06:35:23.551Z,68.80
2018-02-02T06:37:51.549Z,68.80
2018-02-02T06:40:19.123Z,68.80
2018-02-02T06:42:47.284Z,68.80
2018-02-02T06:45:14.842Z,68.90
2018-02-02T06:47:42.889Z,69.00
2018-02-02T06:50:10.427Z,69.00
2018-02-02T06:52:38.043Z,69.00
2018-02-02T06:55:05.788Z,69.00
2018-02-02T06:57:33.382Z,69.00
2018-02-02T07:00:01.027Z,69.00
2018-02-02T07:02:32.602Z,69.00
2018-02-02T07:05:00.265Z,69.10
2018-02-02T07:07:27.896Z,69.10
2018-02-02T07:09:55.967Z,69.20
2018-02-02T07:12:23.624Z,69.20
2018-02-02T07:14:51.292Z,69.20
2018-02-02T07:17:18.948Z,69.30
2018-02-02T07:19:46.597Z,69.30
2018-02-02T07:22:14.278Z,69.30
2018-02-02T07:24:41.917Z,69.30
2018-02-02T07:27:09.577Z,69.40
2018-02-02T07:29:37.275Z,69.40
2018-02-02T07:32:04.893Z,69.50
2018-02-02T07:34:32.559Z,69.50
2018-02-02T07:37:00.237Z,69.50
2018-02-02T07:39:38.242Z,69.50
2018-02-02T07:42:05.797Z,69.50
2018-02-02T07:44:33.439Z,69.50
2018-02-02T07:47:01.362Z,69.50
2018-02-02T07:49:45.704Z,69.60
2018-02-02T07:52:22.140Z,69.60
2018-02-02T07:54:54.028Z,69.60
2018-02-02T07:57:22.482Z,69.70
2018-02-02T07:59:50.144Z,69.60
2018-02-02T08:02:20.450Z,69.70
2018-02-02T08:04:48.137Z,69.70
2018-02-02T08:07:15.790Z,69.70
2018-02-02T08:09:43.453Z,69.70
2018-02-02T08:12:14.598Z,69.80
2018-02-02T08:14:42.282Z,69.80
2018-02-02T08:17:14.391Z,69.90
2018-02-02T08:19:42.079Z,69.80
2018-02-02T08:22:10.175Z,69.80
2018-02-02T08:24:37.815Z,69.80
2018-02-02T08:27:05.687Z,69.80
2018-02-02T08:29:33.372Z,69.90
2018-02-02T08:32:00.973Z,69.90
2018-02-02T08:34:28.649Z,69.90
2018-02-02T08:36:56.512Z,69.90
2018-02-02T08:39:24.228Z,70.00
2018-02-02T08:41:51.854Z,70.00
2018-02-02T08:44:19.490Z,70.00
2018-02-02T08:46:47.147Z,70.00
2018-02-02T08:49:14.803Z,70.00
2018-02-02T08:51:44.523Z,70.10
2018-02-02T08:54:12.175Z,70.00
2018-02-02T08:56:39.839Z,70.00
2018-02-02T08:59:07.487Z,70.10
2018-02-02T09:01:40.649Z,70.10
2018-02-02T09:04:08.233Z,70.10
2018-02-02T09:06:35.792Z,70.10
2018-02-02T09:09:03.725Z,70.10
2018-02-02T09:11:31.323Z,70.10
2018-02-02T09:13:59.053Z,70.10
2018-02-02T09:16:27.064Z,70.10
2018-02-02T09:18:54.717Z,70.20
2018-02-02T09:21:22.411Z,70.20
2018-02-02T09:23:50.059Z,70.20
2018-02-02T09:26:18.099Z,70.20
2018-02-02T09:28:50.489Z,70.20
2018-02-02T09:31:18.142Z,70.30
2018-02-02T09:33:45.826Z,70.20
2018-02-02T09:36:13.483Z,70.20
2018-02-02T09:38:41.156Z,70.30
2018-02-02T09:41:14.550Z,70.30
2018-02-02T09:43:42.220Z,70.30
2018-02-02T09:46:10.342Z,70.30
2018-02-02T09:48:38.341Z,70.30
2018-02-02T09:51:05.984Z,70.30
2018-02-02T09:53:33.975Z,70.30
2018-02-02T09:56:01.538Z,70.20
2018-02-02T09:58:32.474Z,70.30
2018-02-02T10:01:00.142Z,70.30
2018-02-02T10:03:28.209Z,70.30
2018-02-02T10:05:55.847Z,70.40
2018-02-02T10:08:23.574Z,70.40
2018-02-02T10:10:51.222Z,70.40
2018-02-02T10:13:18.822Z,70.30
2018-02-02T10:15:50.579Z,70.40
2018-02-02T10:18:20.499Z,70.30
2018-02-02T10:20:48.173Z,70.40
2018-02-02T10:23:15.823Z,70.40
2018-02-02T10:25:43.526Z,70.40
2018-02-02T10:28:11.143Z,70.40
2018-02-02T10:30:38.840Z,70.50
2018-02-02T10:33:06.476Z,70.40
2018-02-02T10:35:34.731Z,70.40
2018-02-02T10:38:02.410Z,70.50
2018-02-02T10:40:30.074Z,70.60
2018-02-02T10:42:57.707Z,70.50
2018-02-02T10:45:25.379Z,70.50
2018-02-02T10:47:53.057Z,70.60
2018-02-02T10:50:20.723Z,70.50
2018-02-02T10:52:48.351Z,70.50
2018-02-02T10:55:20.551Z,70.60
2018-02-02T10:57:48.201Z,70.60
2018-02-02T11:00:15.915Z,70.50
2018-02-02T11:03:01.772Z,70.60
2018-02-02T11:05:29.842Z,70.50
2018-02-02T11:08:02.606Z,70.60
2018-02-02T11:10:30.255Z,70.60
2018-02-02T11:12:58.320Z,70.70
2018-02-02T11:15:32.854Z,70.70
2018-02-02T11:18:14.351Z,70.70
2018-02-02T11:20:43.696Z,70.70
2018-02-02T11:23:13.814Z,70.70
2018-02-02T11:25:44.703Z,70.70
2018-02-02T11:28:12.612Z,70.80
2018-02-02T11:30:41.030Z,70.80
2018-02-02T11:33:08.691Z,70.80
2018-02-02T11:35:36.437Z,70.80
2018-02-02T11:38:04.435Z,70.80
2018-02-02T11:40:32.122Z,70.80
2018-02-02T11:43:00.151Z,70.90
2018-02-02T11:45:27.840Z,70.80
2018-02-02T11:47:55.965Z,70.80
2018-02-02T11:50:24.007Z,70.90
2018-02-02T11:52:51.661Z,70.90
2018-02-02T11:55:19.306Z,70.90
2018-02-02T11:58:07.453Z,70.90
2018-02-02T12:00:35.508Z,70.90
2018-02-02T12:03:03.610Z,71.00
2018-02-02T12:05:31.218Z,71.00
2018-02-02T12:07:58.872Z,71.00
2018-02-02T12:10:26.532Z,71.00
2018-02-02T12:12:54.200Z,71.20
2018-02-02T12:15:21.938Z,71.00
2018-02-02T12:17:49.964Z,71.20
2018-02-02T12:20:17.634Z,71.20
2018-02-02T12:22:49.086Z,71.20
2018-02-02T12:25:29.022Z,71.20
2018-02-02T12:28:16.391Z,71.20
2018-02-02T12:30:47.009Z,71.10
2018-02-02T12:33:20.361Z,71.20
2018-02-02T12:36:02.240Z,71.20
2018-02-02T12:38:29.848Z,71.30
2018-02-02T12:40:57.470Z,71.30
2018-02-02T12:43:25.118Z,71.30
2018-02-02T12:45:52.806Z,71.40
2018-02-02T12:48:32.265Z,71.40
2018-02-02T12:51:00.694Z,71.50
2018-02-02T12:53:28.338Z,71.50
2018-02-02T12:55:55.943Z,71.50
2018-02-02T12:58:26.704Z,71.50
2018-02-02T13:00:56.619Z,71.60
2018-02-02T13:03:24.204Z,71.60
2018-02-02T13:05:52.000Z,71.60
2018-02-02T13:08:19.570Z,71.60
2018-02-02T13:10:50.674Z,71.60
2018-02-02T13:13:18.321Z,71.60
2018-02-02T13:15:50.699Z,71.60
2018-02-02T13:18:18.352Z,71.70
2018-02-02T13:20:46.874Z,71.70
2018-02-02T13:23:14.484Z,71.70
2018-02-02T13:25:42.029Z,71.80
2018-02-02T13:28:09.639Z,71.80
2018-02-02T13:30:37.327Z,71.80
2018-02-02T13:33:05.018Z,71.80
2018-02-02T13:35:33.031Z,71.80
2018-02-02T13:38:00.679Z,71.90
2018-02-02T13:40:28.365Z,71.90
2018-02-02T13:42:56.440Z,71.90
2018-02-02T13:45:26.750Z,71.90
2018-02-02T13:47:54.394Z,71.90
2018-02-02T13:50:22.354Z,71.90
2018-02-02T13:52:50.333Z,72.00
2018-02-02T13:55:18.006Z,72.00
2018-02-02T13:57:45.683Z,72.00
2018-02-02T14:00:13.380Z,72.00
2018-02-02T14:02:41.882Z,72.00
2018-02-02T14:05:09.876Z,72.00
2018-02-02T14:07:38.954Z,72.10
2018-02-02T14:10:06.665Z,72.10
2018-02-02T14:12:34.400Z,72.20
2018-02-02T14:15:02.053Z,72.10
2018-02-02T14:17:29.618Z,72.20
2018-02-02T14:19:57.279Z,72.10
2018-02-02T14:22:24.920Z,72.20
2018-02-02T14:24:52.593Z,72.20
2018-02-02T14:27:20.235Z,72.20
2018-02-02T14:29:47.920Z,72.30
2018-02-02T14:32:20.699Z,72.20
2018-02-02T14:34:48.583Z,72.00
2018-02-02T14:37:16.240Z,72.10
2018-02-02T14:39:43.933Z,72.10
2018-02-02T14:42:28.717Z,72.10
2018-02-02T14:44:57.263Z,72.10
2018-02-02T14:47:34.797Z,72.20
2018-02-02T14:50:03.391Z,72.10
2018-02-02T14:52:31.273Z,72.10
2018-02-02T14:54:58.904Z,72.30
2018-02-02T14:57:26.607Z,72.30
2018-02-02T14:59:54.240Z,72.30
2018-02-02T15:02:21.931Z,72.40
2018-02-02T15:04:49.590Z,72.40
2018-02-02T15:07:17.272Z,72.40
2018-02-02T15:09:45.011Z,72.40
2018-02-02T15:12:12.981Z,72.40
2018-02-02T15:14:40.669Z,72.50
2018-02-02T15:17:08.313Z,72.60
2018-02-02T15:19:35.946Z,72.60
2018-02-02T15:22:04.026Z,72.70
2018-02-02T15:24:31.734Z,72.70
2018-02-02T15:26:59.336Z,72.60
2018-02-02T15:29:41.144Z,72.70
2018-02-02T15:32:08.800Z,72.70
2018-02-02T15:34:36.467Z,72.60
2018-02-02T15:37:04.088Z,72.60
2018-02-02T15:39:32.758Z,72.60
2018-02-02T15:42:00.293Z,72.60
2018-02-02T15:44:27.982Z,72.60
2018-02-02T15:46:56.000Z,72.70
2018-02-02T15:49:23.675Z,72.70
2018-02-02T15:51:51.776Z,72.60
2018-02-02T15:54:19.810Z,72.70
2018-02-02T15:56:47.515Z,72.60
2018-02-02T15:59:15.133Z,72.70
2018-02-02T16:01:42.739Z,72.70
2018-02-02T16:07:03.594Z,72.60
2018-02-02T16:09:31.159Z,72.60
2018-02-02T16:11:59.207Z,72.70
2018-02-02T16:14:26.862Z,72.70
2018-02-02T16:16:54.522Z,72.70
2018-02-02T16:19:32.302Z,72.70
2018-02-02T16:22:00.318Z,72.70
2018-02-02T16:24:28.013Z,72.70
2018-02-02T16:26:55.603Z,72.70
2018-02-02T16:29:23.291Z,72.70
2018-02-02T16:31:51.015Z,72.70
2018-02-02T16:34:19.038Z,72.70
2018-02-02T16:36:46.718Z,72.70
2018-02-02T16:39:14.790Z,72.70
2018-02-02T16:41:42.402Z,72.70
2018-02-02T16:44:10.062Z,72.70
2018-02-02T16:46:37.746Z,72.70
2018-02-02T16:49:05.364Z,72.70
2018-02-02T16:51:33.324Z,72.70
2018-02-02T16:54:02.749Z,72.70
2018-02-02T16:56:30.926Z,72.70
2018-02-02T16:58:59.450Z,72.80
2018-02-02T17:01:27.010Z,72.80
2018-02-02T17:03:54.630Z,72.80
2018-02-02T17:06:22.296Z,72.80
2018-02-02T17:08:50.008Z,72.70
2018-02-02T17:11:17.605Z,72.70
2018-02-02T17:13:56.423Z,72.70
2018-02-02T17:16:26.846Z,72.70
2018-02-02T17:18:54.537Z,72.70
2018-02-02T17:21:22.191Z,72.80
2018-02-02T17:23:49.824Z,72.70
2018-02-02T17:26:17.576Z,72.80
2018-02-02T17:28:45.764Z,72.70
2018-02-02T17:31:13.813Z,72.70
2018-02-02T17:33:44.782Z,72.70
2018-02-02T17:36:12.456Z,72.70
2018-02-02T17:38:44.810Z,72.70
2018-02-02T17:41:12.468Z,72.70
2018-02-02T17:43:40.594Z,72.70
2018-02-02T17:46:08.224Z,72.70
2018-02-02T17:48:35.879Z,72.70
2018-02-02T17:51:08.838Z,72.70
2018-02-02T17:53:36.529Z,72.70
2018-02-02T17:56:04.189Z,72.80
2018-02-02T17:58:32.351Z,72.80
2018-02-02T18:01:10.138Z,72.80
2018-02-02T18:03:38.123Z,72.80
2018-02-02T18:06:14.189Z,72.80
2018-02-02T18:11:39.519Z,72.80
2018-02-02T18:14:11.885Z,72.80
2018-02-02T18:16:39.757Z,72.80
2018-02-02T18:19:07.421Z,72.80
2018-02-02T18:21:35.115Z,72.80
2018-02-02T18:24:03.138Z,72.80
2018-02-02T18:26:32.870Z,72.80
2018-02-02T18:29:00.500Z,72.80
2018-02-02T18:31:28.191Z,72.80
2018-02-02T18:33:55.844Z,72.80
2018-02-02T18:36:23.722Z,72.90
2018-02-02T18:38:51.369Z,72.80
2018-02-02T18:41:19.468Z,72.80
2018-02-02T18:43:47.090Z,72.80
2018-02-02T18:46:14.727Z,72.90
2018-02-02T18:48:42.444Z,72.80
2018-02-02T18:51:10.084Z,72.80
2018-02-02T18:53:37.696Z,72.80
2018-02-02T18:56:14.492Z,72.80
2018-02-02T18:58:42.052Z,72.90
2018-02-02T19:01:10.150Z,72.90
2018-02-02T19:03:37.787Z,72.90
2018-02-02T19:06:05.431Z,72.90
2018-02-02T19:08:33.172Z,72.90
2018-02-02T19:11:01.202Z,72.90
2018-02-02T19:13:28.881Z,72.90
2018-02-02T19:15:56.475Z,72.90
2018-02-02T19:18:24.602Z,73.00
2018-02-02T19:20:52.305Z,72.90
2018-02-02T19:23:20.285Z,72.90
2018-02-02T19:25:47.951Z,72.90
2018-02-02T19:28:20.733Z,72.80
2018-02-02T19:30:48.788Z,72.80
2018-02-02T19:33:20.800Z,72.90
2018-02-02T19:35:48.461Z,72.90
2018-02-02T19:38:16.135Z,72.90
2018-02-02T19:40:43.785Z,72.90
2018-02-02T19:43:11.926Z,72.90
2018-02-02T19:45:39.506Z,72.80
2018-02-02T19:48:07.151Z,72.90
2018-02-02T19:50:35.283Z,72.90
2018-02-02T19:53:03.410Z,72.90
2018-02-02T19:55:31.040Z,72.90
2018-02-02T19:57:58.671Z,72.90
2018-02-02T20:00:26.641Z,72.90
2018-02-02T20:02:54.604Z,72.80
2018-02-02T20:05:22.678Z,72.80
2018-02-02T20:07:50.768Z,72.80
2018-02-02T20:10:18.798Z,72.90
2018-02-02T20:12:46.433Z,72.90
2018-02-02T20:15:14.197Z,72.90
2018-02-02T20:17:42.150Z,72.90
2018-02-02T20:20:10.332Z,72.90
2018-02-02T20:22:38.955Z,72.90
2018-02-02T20:25:07.391Z,72.90
2018-02-02T20:27:35.115Z,72.90
2018-02-02T20:30:03.174Z,72.90
2018-02-02T20:32:31.163Z,72.90
2018-02-02T20:34:58.855Z,72.90
2018-02-02T20:37:26.584Z,72.90
2018-02-02T20:39:54.613Z,72.90
2018-02-02T20:42:22.690Z,73.00
2018-02-02T20:44:50.309Z,73.00
2018-02-02T20:47:18.414Z,73.00
2018-02-02T20:49:46.052Z,73.00
2018-02-02T20:52:14.130Z,73.00
2018-02-02T20:54:41.798Z,72.90
2018-02-02T20:57:09.822Z,73.00
2018-02-02T20:59:37.524Z,73.10
2018-02-02T21:02:05.174Z,73.00
2018-02-02T21:04:33.286Z,73.00
2018-02-02T21:07:08.591Z,73.00
2018-02-02T21:09:36.569Z,73.00
2018-02-02T21:12:04.206Z,73.00
2018-02-02T21:14:31.906Z,73.00
2018-02-02T21:16:59.640Z,73.00
2018-02-02T21:19:27.261Z,73.00
2018-02-02T21:21:54.858Z,73.00
2018-02-02T21:24:22.525Z,73.00
2018-02-02T21:26:50.212Z,73.00
2018-02-02T21:29:17.918Z,73.00
2018-02-02T21:31:45.536Z,73.00
2018-02-02T21:34:15.236Z,73.00
2018-02-02T21:36:42.995Z,73.00
2018-02-02T21:39:11.617Z,73.00
2018-02-02T21:41:42.328Z,72.90
2018-02-02T21:44:11.020Z,73.00
2018-02-02T21:46:39.046Z,73.00
2018-02-02T21:49:06.709Z,73.00
2018-02-02T21:51:34.383Z,73.00
2018-02-02T21:54:02.115Z,73.00
2018-02-02T21:56:29.704Z,73.00
2018-02-02T21:58:57.810Z,73.00
2018-02-02T22:01:25.884Z,73.00
2018-02-02T22:03:53.866Z,73.00
2018-02-02T22:06:21.396Z,73.00
2018-02-02T22:08:48.986Z,73.00
2018-02-02T22:11:16.707Z,73.00
2018-02-02T22:13:44.935Z,73.00
2018-02-02T22:16:12.660Z,73.00
2018-02-02T22:18:40.653Z,73.00
2018-02-02T22:21:14.565Z,73.00
2018-02-02T22:23:44.994Z,73.00
2018-02-02T22:26:12.683Z,73.00
2018-02-02T22:28:40.347Z,72.90
2018-02-02T22:31:08.030Z,73.00
2018-02-02T22:33:36.053Z,72.90
2018-02-02T22:36:03.714Z,72.90
2018-02-02T22:38:31.423Z,72.90
2018-02-02T22:40:59.070Z,72.90
2018-02-02T22:43:26.746Z,72.90
2018-02-02T22:45:54.771Z,72.90
2018-02-02T22:48:22.445Z,72.90
2018-02-02T22:50:50.128Z,72.90
2018-02-02T22:53:17.755Z,72.80
2018-02-02T22:55:45.436Z,72.90
2018-02-02T22:58:13.064Z,72.80
2018-02-02T23:00:40.763Z,72.80
2018-02-02T23:03:08.350Z,72.80
2018-02-02T23:05:35.884Z,72.80
2018-02-02T23:08:14.634Z,72.80
2018-02-02T23:10:42.674Z,72.80
2018-02-02T23:13:10.358Z,72.80
2018-02-02T23:15:37.978Z,72.80
2018-02-02T23:18:06.097Z,72.80
2018-02-02T23:20:34.109Z,72.80
2018-02-02T23:23:02.975Z,72.80
2018-02-02T23:25:30.671Z,72.80
2018-02-02T23:27:58.352Z,72.70
2018-02-02T23:30:26.035Z,72.70
2018-02-02T23:32:54.034Z,72.70
2018-02-02T23:35:21.706Z,72.70
2018-02-02T23:37:49.848Z,72.70
2018-02-02T23:40:17.848Z,72.60
2018-02-02T23:42:45.505Z,72.70
2018-02-02T23:45:13.157Z,72.70
2018-02-02T23:47:40.844Z,72.60
2018-02-02T23:50:08.475Z,72.60
2018-02-02T23:52:36.134Z,72.70
2018-02-02T23:55:03.784Z,72.60
2018-02-02T23:57:38.759Z,72.60
